createdAt,value
2022-08-12T00:00:00.297Z,21.73
2022-08-12T00:02:45.869Z,21.73
2022-08-12T00:05:32.501Z,21.68
2022-08-12T00:08:28.627Z,21.66
2022-08-12T00:11:21.204Z,21.54
2022-08-12T00:14:06.274Z,21.42
2022-08-12T00:16:53.129Z,21.33
2022-08-12T00:19:38.258Z,21.26
2022-08-12T00:22:23.916Z,21.18
2022-08-12T00:25:09.426Z,21.12
2022-08-12T00:27:55.109Z,21.07
2022-08-12T00:30:40.720Z,21.04
2022-08-12T00:33:30.487Z,20.97
2022-08-12T00:36:35.223Z,20.89
2022-08-12T00:39:22.105Z,20.89
2022-08-12T00:42:08.947Z,20.88
2022-08-12T00:44:37.083Z,20.86
2022-08-12T00:47:06.608Z,20.77
2022-08-12T00:49:39.403Z,20.72
2022-08-12T00:52:09.742Z,20.70
2022-08-12T00:54:42.367Z,20.67
2022-08-12T00:57:13.285Z,20.63
2022-08-12T00:59:46.782Z,20.60
2022-08-12T01:02:23.529Z,20.54
2022-08-12T01:05:14.010Z,20.51
2022-08-12T01:08:00.549Z,20.45
2022-08-12T01:10:52.171Z,20.44
2022-08-12T01:13:20.733Z,20.41
2022-08-12T01:15:52.343Z,20.40
2022-08-12T01:18:21.670Z,20.38
2022-08-12T01:21:12.130Z,20.35
2022-08-12T01:24:30.346Z,20.35
2022-08-12T01:26:55.974Z,20.39
2022-08-12T01:29:28.588Z,20.38
2022-08-12T01:32:05.199Z,20.41
2022-08-12T01:34:37.350Z,20.45
2022-08-12T01:37:08.358Z,20.46
2022-08-12T01:40:33.339Z,20.47
2022-08-12T01:42:41.038Z,20.44
2022-08-12T01:45:12.329Z,20.48
2022-08-12T01:47:55.070Z,20.50
2022-08-12T01:50:26.429Z,20.52
2022-08-12T01:53:03.740Z,20.49
2022-08-12T01:55:34.513Z,20.49
2022-08-12T01:58:15.918Z,20.48
2022-08-12T02:00:55.343Z,20.44
2022-08-12T02:03:54.842Z,20.38
2022-08-12T02:06:48.349Z,20.35
2022-08-12T02:09:37.981Z,20.30
2022-08-12T02:12:15.271Z,20.24
2022-08-12T02:14:53.170Z,20.19
2022-08-12T02:17:55.093Z,20.17
2022-08-12T02:20:43.864Z,20.09
2022-08-12T02:23:25.456Z,20.01
2022-08-12T02:25:57.050Z,19.95
2022-08-12T02:28:25.448Z,19.89
2022-08-12T02:30:56.219Z,19.87
2022-08-12T02:33:25.597Z,19.84
2022-08-12T02:35:53.842Z,19.79
2022-08-12T02:38:22.862Z,19.77
2022-08-12T02:40:54.638Z,19.69
2022-08-12T02:43:32.082Z,19.62
2022-08-12T02:46:09.301Z,19.62
2022-08-12T02:48:47.612Z,19.58
2022-08-12T02:51:20.413Z,19.54
2022-08-12T02:54:03.316Z,19.53
2022-08-12T02:56:34.814Z,19.50
2022-08-12T02:59:03.167Z,19.52
2022-08-12T03:01:35.670Z,19.56
2022-08-12T03:04:20.395Z,19.57
2022-08-12T03:06:52.853Z,19.61
2022-08-12T03:09:24.833Z,19.63
2022-08-12T03:12:04.811Z,19.62
2022-08-12T03:14:36.221Z,19.60
2022-08-12T03:17:14.927Z,19.62
2022-08-12T03:20:08.808Z,19.63
2022-08-12T03:22:38.310Z,19.59
2022-08-12T03:25:07.635Z,19.52
2022-08-12T03:27:40.420Z,19.50
2022-08-12T03:30:09.314Z,19.52
2022-08-12T03:32:40.599Z,19.49
2022-08-12T03:35:38.356Z,19.45
2022-08-12T03:38:05.317Z,19.47
2022-08-12T03:41:01.229Z,19.47
2022-08-12T03:43:52.486Z,19.42
2022-08-12T03:46:44.767Z,19.40
2022-08-12T03:49:31.724Z,19.42
2022-08-12T03:52:17.495Z,19.44
2022-08-12T03:55:02.624Z,19.44
2022-08-12T03:57:48.699Z,19.42
2022-08-12T04:00:24.817Z,19.34
2022-08-12T04:03:01.801Z,19.29
2022-08-12T04:05:54.296Z,19.21
2022-08-12T04:08:23.909Z,19.20
2022-08-12T04:11:09.603Z,19.21
2022-08-12T04:13:40.778Z,19.18
2022-08-12T04:16:14.459Z,19.19
2022-08-12T04:18:43.472Z,19.17
2022-08-12T04:21:13.029Z,19.14
2022-08-12T04:23:48.173Z,19.14
2022-08-12T04:26:16.522Z,19.09
2022-08-12T04:28:45.920Z,19.10
2022-08-12T04:31:14.209Z,19.07
2022-08-12T04:33:43.496Z,19.08
2022-08-12T04:36:12.745Z,19.07
2022-08-12T04:38:40.940Z,19.04
2022-08-12T04:41:11.078Z,19.00
2022-08-12T04:44:00.627Z,19.02
2022-08-12T04:46:31.960Z,19.03
2022-08-12T04:49:03.723Z,19.07
2022-08-12T04:51:33.799Z,19.08
2022-08-12T04:54:02.705Z,19.09
2022-08-12T04:56:35.435Z,19.08
2022-08-12T04:59:04.044Z,19.10
2022-08-12T05:01:32.790Z,19.12
2022-08-12T05:04:02.814Z,19.13
2022-08-12T05:06:32.754Z,19.17
2022-08-12T05:09:01.392Z,19.21
2022-08-12T05:11:29.753Z,19.22
2022-08-12T05:14:00.222Z,19.27
2022-08-12T05:16:32.501Z,19.26
2022-08-12T05:19:02.418Z,19.33
2022-08-12T05:21:30.422Z,19.39
2022-08-12T05:23:59.610Z,19.45
2022-08-12T05:26:27.976Z,19.52
2022-08-12T05:28:55.935Z,19.59
2022-08-12T05:31:47.625Z,19.65
2022-08-12T05:34:14.667Z,19.76
2022-08-12T05:36:43.783Z,19.85
2022-08-12T05:39:13.274Z,19.94
2022-08-12T05:41:41.607Z,20.00
2022-08-12T05:44:12.677Z,20.07
2022-08-12T05:46:41.227Z,20.18
2022-08-12T05:49:09.152Z,20.21
2022-08-12T05:51:41.201Z,20.28
2022-08-12T05:54:10.452Z,20.30
2022-08-12T05:56:40.720Z,20.33
2022-08-12T05:59:11.278Z,20.38
2022-08-12T06:02:10.005Z,20.46
2022-08-12T06:04:28.256Z,20.56
2022-08-12T06:06:56.135Z,20.62
2022-08-12T06:09:26.393Z,20.72
2022-08-12T06:12:04.633Z,20.78
2022-08-12T06:14:36.981Z,20.86
2022-08-12T06:17:07.922Z,20.97
2022-08-12T06:20:26.771Z,21.08
2022-08-12T06:22:23.691Z,21.19
2022-08-12T06:24:52.990Z,21.30
2022-08-12T06:27:22.442Z,21.40
2022-08-12T06:30:09.765Z,21.47
2022-08-12T06:32:51.587Z,21.60
2022-08-12T06:35:48.209Z,21.72
2022-08-12T06:38:17.242Z,21.80
2022-08-12T06:41:03.084Z,21.90
2022-08-12T06:44:06.982Z,22.04
2022-08-12T06:46:22.082Z,22.16
2022-08-12T06:48:55.091Z,22.27
2022-08-12T06:51:23.052Z,22.40
2022-08-12T06:53:51.005Z,22.50
2022-08-12T06:56:18.800Z,22.59
2022-08-12T06:58:47.960Z,22.71
2022-08-12T07:01:17.440Z,22.82
2022-08-12T07:03:45.935Z,22.92
2022-08-12T07:06:13.932Z,23.03
2022-08-12T07:08:44.002Z,23.15
2022-08-12T07:11:13.468Z,23.25
2022-08-12T07:14:08.531Z,23.36
2022-08-12T07:16:48.753Z,23.46
2022-08-12T07:19:16.941Z,23.56
2022-08-12T07:21:57.929Z,23.63
2022-08-12T07:24:30.247Z,23.71
2022-08-12T07:26:58.258Z,23.78
2022-08-12T07:29:57.876Z,23.87
2022-08-12T07:32:18.363Z,23.93
2022-08-12T07:34:47.364Z,24.01
2022-08-12T07:37:17.730Z,24.11
2022-08-12T07:39:50.799Z,24.16
2022-08-12T07:42:28.059Z,24.25
2022-08-12T07:44:56.509Z,24.35
2022-08-12T07:47:27.520Z,24.49
2022-08-12T07:50:05.289Z,24.61
2022-08-12T07:52:34.678Z,24.73
2022-08-12T07:55:02.817Z,24.92
2022-08-12T07:57:32.417Z,25.08
2022-08-12T08:00:04.915Z,25.24
2022-08-12T08:02:35.794Z,25.44
2022-08-12T08:05:03.774Z,25.62
2022-08-12T08:07:31.643Z,25.79
2022-08-12T08:10:01.198Z,25.90
2022-08-12T08:12:47.950Z,26.05
2022-08-12T08:15:16.560Z,26.29
2022-08-12T08:17:59.640Z,26.50
2022-08-12T08:20:29.482Z,26.67
2022-08-12T08:22:58.413Z,26.87
2022-08-12T08:25:36.791Z,27.08
2022-08-12T08:28:08.285Z,27.28
2022-08-12T08:30:39.388Z,27.42
2022-08-12T08:33:22.913Z,27.64
2022-08-12T08:35:54.281Z,27.80
2022-08-12T08:38:32.245Z,27.96
2022-08-12T08:42:16.571Z,28.10
2022-08-12T08:44:10.865Z,28.25
2022-08-12T08:46:39.357Z,28.43
2022-08-12T08:49:08.880Z,28.55
2022-08-12T08:51:37.308Z,28.74
2022-08-12T08:54:06.850Z,28.88
2022-08-12T08:56:42.726Z,29.05
2022-08-12T08:59:11.875Z,29.25
2022-08-12T09:01:39.874Z,29.44
2022-08-12T09:05:11.192Z,29.61
2022-08-12T09:07:00.121Z,29.64
2022-08-12T09:10:01.408Z,29.71
2022-08-12T09:12:36.199Z,29.91
2022-08-12T09:15:16.632Z,30.03
2022-08-12T09:17:53.244Z,30.21
2022-08-12T09:20:27.488Z,30.32
2022-08-12T09:22:58.946Z,30.41
2022-08-12T09:25:27.425Z,30.54
2022-08-12T09:28:05.131Z,30.65
2022-08-12T09:30:41.006Z,30.76
2022-08-12T09:33:18.823Z,30.84
2022-08-12T09:36:04.537Z,30.91
2022-08-12T09:38:35.357Z,30.89
2022-08-12T09:42:33.419Z,30.87
2022-08-12T09:44:37.702Z,30.93
2022-08-12T09:46:58.254Z,31.04
2022-08-12T09:49:26.050Z,31.09
2022-08-12T09:51:55.814Z,31.19
2022-08-12T09:54:32.887Z,31.27
2022-08-12T09:58:46.934Z,31.43
2022-08-12T10:00:13.406Z,31.45
2022-08-12T10:03:01.656Z,31.42
2022-08-12T10:06:19.687Z,31.53
2022-08-12T10:08:30.331Z,31.71
2022-08-12T10:11:18.544Z,31.83
2022-08-12T10:13:50.057Z,31.92
2022-08-12T10:16:22.585Z,31.87
2022-08-12T10:18:53.664Z,32.01
2022-08-12T10:21:24.313Z,32.13
2022-08-12T10:24:06.871Z,32.27
2022-08-12T10:26:53.961Z,32.54
2022-08-12T10:30:11.933Z,32.68
2022-08-12T10:32:44.474Z,32.60
2022-08-12T10:35:15.926Z,32.62
2022-08-12T10:38:37.926Z,32.64
2022-08-12T10:40:55.854Z,32.52
2022-08-12T10:43:55.423Z,32.46
2022-08-12T10:46:31.264Z,32.50
2022-08-12T10:49:06.587Z,32.69
2022-08-12T10:52:32.892Z,32.82
2022-08-12T10:54:41.324Z,32.94
2022-08-12T10:57:18.265Z,32.97
2022-08-12T11:00:34.255Z,32.81
2022-08-12T11:04:22.847Z,32.97
2022-08-12T11:07:08.461Z,33.03
2022-08-12T11:08:37.929Z,33.10
2022-08-12T11:11:13.664Z,33.05
2022-08-12T11:13:46.478Z,33.11
2022-08-12T11:16:19.523Z,33.19
2022-08-12T11:18:54.975Z,33.49
2022-08-12T11:21:51.452Z,33.61
2022-08-12T11:24:30.019Z,33.69
2022-08-12T11:27:00.137Z,33.82
2022-08-12T11:30:06.057Z,33.90
2022-08-12T11:32:18.062Z,34.02
2022-08-12T11:34:52.777Z,34.01
2022-08-12T11:37:25.534Z,33.92
2022-08-12T11:42:35.013Z,34.09
2022-08-12T11:45:05.647Z,34.28
2022-08-12T11:47:40.500Z,34.30
2022-08-12T11:50:11.872Z,34.00
2022-08-12T11:52:56.583Z,33.88
2022-08-12T11:55:27.470Z,33.86
2022-08-12T11:58:34.001Z,33.89
2022-08-12T12:03:44.058Z,34.06
2022-08-12T12:06:16.919Z,34.07
2022-08-12T12:08:51.055Z,34.10
2022-08-12T12:11:21.492Z,34.07
2022-08-12T12:14:06.772Z,34.07
2022-08-12T12:16:39.986Z,34.21
2022-08-12T12:19:10.603Z,34.04
2022-08-12T12:21:47.521Z,33.89
2022-08-12T12:24:21.642Z,34.00
2022-08-12T12:27:00.602Z,34.10
2022-08-12T12:30:17.770Z,34.18
2022-08-12T12:32:29.379Z,34.37
2022-08-12T12:35:14.131Z,34.49
2022-08-12T12:38:04.024Z,34.57
2022-08-12T12:40:35.053Z,34.55
2022-08-12T12:43:08.702Z,34.68
2022-08-12T12:45:39.300Z,34.45
2022-08-12T12:48:10.713Z,34.43
2022-08-12T12:50:42.498Z,34.60
2022-08-12T12:54:06.519Z,34.46
2022-08-12T12:56:13.529Z,34.49
2022-08-12T12:58:43.484Z,34.64
2022-08-12T13:01:28.024Z,34.85
2022-08-12T13:04:02.507Z,34.59
2022-08-12T13:06:32.410Z,34.42
2022-08-12T13:09:03.893Z,34.40
2022-08-12T13:11:42.261Z,34.34
2022-08-12T13:14:29.551Z,34.29
2022-08-12T13:17:02.384Z,34.30
2022-08-12T13:19:37.664Z,34.18
2022-08-12T13:22:21.077Z,34.06
2022-08-12T13:24:54.686Z,34.08
2022-08-12T13:27:34.474Z,34.25
2022-08-12T13:30:06.965Z,34.45
2022-08-12T13:32:40.718Z,34.64
2022-08-12T13:35:19.231Z,34.80
2022-08-12T13:37:55.383Z,34.69
2022-08-12T13:40:24.989Z,34.49
2022-08-12T13:42:57.726Z,34.19
2022-08-12T13:45:25.961Z,34.21
2022-08-12T13:47:56.363Z,34.27
2022-08-12T13:50:29.826Z,34.37
2022-08-12T13:52:57.735Z,34.41
2022-08-12T13:55:30.920Z,34.42
2022-08-12T13:58:00.131Z,34.39
2022-08-12T14:00:33.918Z,34.26
2022-08-12T14:03:06.657Z,34.44
2022-08-12T14:05:40.105Z,34.50
2022-08-12T14:08:10.913Z,34.51
2022-08-12T14:10:50.512Z,34.49
2022-08-12T14:14:05.730Z,34.57
2022-08-12T14:16:15.015Z,34.51
2022-08-12T14:19:03.020Z,34.53
2022-08-12T14:21:59.440Z,34.63
2022-08-12T14:24:21.491Z,34.80
2022-08-12T14:26:55.088Z,34.81
2022-08-12T14:29:55.644Z,34.77
2022-08-12T14:32:16.513Z,34.86
2022-08-12T14:34:44.811Z,34.66
2022-08-12T14:37:54.907Z,34.76
2022-08-12T14:40:02.628Z,34.65
2022-08-12T14:42:30.615Z,34.48
2022-08-12T14:45:01.028Z,34.36
2022-08-12T14:47:35.557Z,34.00
2022-08-12T14:50:37.783Z,33.86
2022-08-12T14:58:32.597Z,33.76
2022-08-12T15:01:19.762Z,33.87
2022-08-12T15:03:57.130Z,33.94
2022-08-12T15:06:43.902Z,33.96
2022-08-12T15:09:15.998Z,33.95
2022-08-12T15:11:55.288Z,33.98
2022-08-12T15:14:25.602Z,33.91
2022-08-12T15:16:54.159Z,33.59
2022-08-12T15:20:12.032Z,33.39
2022-08-12T15:22:37.726Z,33.13
2022-08-12T15:24:59.622Z,32.81
2022-08-12T15:27:31.597Z,32.63
2022-08-12T15:30:08.023Z,32.45
2022-08-12T15:32:37.546Z,32.39
2022-08-12T15:35:12.188Z,32.22
2022-08-12T15:38:09.251Z,32.13
2022-08-12T15:40:30.720Z,32.06
2022-08-12T15:42:59.678Z,31.95
2022-08-12T15:45:32.194Z,31.81
2022-08-12T15:48:16.278Z,31.56
2022-08-12T15:50:45.679Z,31.60
2022-08-12T15:53:16.110Z,31.62
2022-08-12T15:55:46.769Z,31.66
2022-08-12T15:58:16.917Z,31.74
2022-08-12T16:00:45.421Z,31.73
2022-08-12T16:03:19.080Z,31.78
2022-08-12T16:06:11.359Z,31.69
2022-08-12T16:08:41.595Z,31.64
2022-08-12T16:11:15.190Z,31.62
2022-08-12T16:13:44.628Z,31.60
2022-08-12T16:16:24.080Z,31.56
2022-08-12T16:18:58.641Z,31.56
2022-08-12T16:21:52.747Z,31.55
2022-08-12T16:24:18.650Z,31.55
2022-08-12T16:26:51.148Z,31.54
2022-08-12T16:29:23.700Z,31.53
2022-08-12T16:31:51.586Z,31.48
2022-08-12T16:34:25.803Z,31.27
2022-08-12T16:37:13.389Z,31.22
2022-08-12T16:40:00.252Z,31.20
2022-08-12T16:42:32.228Z,31.12
2022-08-12T16:45:02.520Z,31.07
2022-08-12T16:47:57.771Z,31.05
2022-08-12T16:50:31.239Z,31.00
2022-08-12T16:53:02.465Z,31.00
2022-08-12T16:55:42.030Z,30.95
2022-08-12T16:58:28.000Z,30.83
2022-08-12T17:01:02.341Z,30.78
2022-08-12T17:03:36.566Z,30.73
2022-08-12T17:06:06.478Z,30.70
2022-08-12T17:08:34.792Z,30.63
2022-08-12T17:11:08.533Z,30.55
2022-08-12T17:13:37.895Z,30.42
2022-08-12T17:16:21.183Z,30.33
2022-08-12T17:18:57.483Z,30.22
2022-08-12T17:21:40.176Z,30.16
2022-08-12T17:24:21.430Z,30.08
2022-08-12T17:26:53.845Z,30.06
2022-08-12T17:30:01.578Z,29.95
2022-08-12T17:32:14.294Z,29.91
2022-08-12T17:35:00.328Z,29.84
2022-08-12T17:37:28.900Z,29.72
2022-08-12T17:40:12.428Z,29.72
2022-08-12T17:42:47.389Z,29.65
2022-08-12T17:45:19.746Z,29.55
2022-08-12T17:48:04.761Z,29.52
2022-08-12T17:50:36.314Z,29.45
2022-08-12T17:53:05.456Z,29.42
2022-08-12T17:55:43.885Z,29.37
2022-08-12T17:58:14.146Z,29.31
2022-08-12T18:00:45.547Z,29.24
2022-08-12T18:04:04.476Z,29.19
2022-08-12T18:06:14.150Z,29.15
2022-08-12T18:08:54.181Z,29.09
2022-08-12T18:12:03.698Z,29.02
2022-08-12T18:14:37.254Z,28.96
2022-08-12T18:17:08.829Z,28.90
2022-08-12T18:20:06.636Z,28.82
2022-08-12T18:22:30.922Z,28.73
2022-08-12T18:25:03.657Z,28.69
2022-08-12T18:27:45.743Z,28.64
2022-08-12T18:30:29.219Z,28.57
2022-08-12T18:33:04.531Z,28.50
2022-08-12T18:35:47.557Z,28.43
2022-08-12T18:38:22.499Z,28.37
2022-08-12T18:41:10.410Z,28.32
2022-08-12T18:43:58.527Z,28.26
2022-08-12T18:46:33.221Z,28.20
2022-08-12T18:49:17.730Z,28.14
2022-08-12T18:51:54.808Z,28.08
2022-08-12T18:54:25.680Z,28.00
2022-08-12T18:56:55.210Z,27.95
2022-08-12T19:00:01.617Z,27.86
2022-08-12T19:02:20.871Z,27.80
2022-08-12T19:04:53.375Z,27.74
2022-08-12T19:07:24.022Z,27.68
2022-08-12T19:09:57.637Z,27.62
2022-08-12T19:12:57.107Z,27.52
2022-08-12T19:15:29.745Z,27.46
2022-08-12T19:18:02.371Z,27.43
2022-08-12T19:20:32.969Z,27.33
2022-08-12T19:23:07.951Z,27.29
2022-08-12T19:26:00.136Z,27.24
2022-08-12T19:28:35.604Z,27.16
2022-08-12T19:31:57.999Z,27.08
2022-08-12T19:37:27.177Z,26.91
2022-08-12T19:40:31.930Z,26.86
2022-08-12T19:43:01.054Z,26.78
2022-08-12T19:45:43.182Z,26.71
2022-08-12T19:48:18.830Z,26.67
2022-08-12T19:50:50.602Z,26.61
2022-08-12T19:53:23.894Z,26.57
2022-08-12T19:55:55.930Z,26.55
2022-08-12T19:58:25.564Z,26.51
2022-08-12T20:00:55.862Z,26.46
2022-08-12T20:03:38.173Z,26.42
2022-08-12T20:06:15.962Z,26.37
2022-08-12T20:08:56.696Z,26.35
2022-08-12T20:12:14.108Z,26.28
2022-08-12T20:14:17.872Z,26.20
2022-08-12T20:16:50.802Z,26.13
2022-08-12T20:19:23.637Z,26.09
2022-08-12T20:21:52.007Z,25.99
2022-08-12T20:24:24.378Z,25.89
2022-08-12T20:27:02.805Z,25.79
2022-08-12T20:29:42.859Z,25.66
2022-08-12T20:32:15.041Z,25.62
2022-08-12T20:34:49.033Z,25.55
2022-08-12T20:37:22.378Z,25.46
2022-08-12T20:40:15.237Z,25.38
2022-08-12T20:42:43.567Z,25.28
2022-08-12T20:45:11.627Z,25.22
2022-08-12T20:47:42.089Z,25.16
2022-08-12T20:50:15.814Z,25.10
2022-08-12T20:52:47.129Z,25.05
2022-08-12T20:55:19.350Z,25.03
2022-08-12T20:58:02.590Z,24.97
2022-08-12T21:00:33.054Z,24.90
2022-08-12T21:03:21.047Z,24.82
2022-08-12T21:06:12.405Z,24.75
2022-08-12T21:08:41.617Z,24.61
2022-08-12T21:11:11.640Z,24.53
2022-08-12T21:13:41.862Z,24.44
2022-08-12T21:16:10.454Z,24.36
2022-08-12T21:18:38.669Z,24.24
2022-08-12T21:21:23.744Z,24.16
2022-08-12T21:23:56.464Z,24.07
2022-08-12T21:26:28.718Z,24.01
2022-08-12T21:29:01.224Z,23.95
2022-08-12T21:32:37.547Z,23.90
2022-08-12T21:34:29.084Z,23.80
2022-08-12T21:37:03.864Z,23.74
2022-08-12T21:39:52.205Z,23.69
2022-08-12T21:42:22.523Z,23.63
2022-08-12T21:45:47.732Z,23.56
2022-08-12T21:47:43.965Z,23.50
2022-08-12T21:50:14.783Z,23.43
2022-08-12T21:52:42.664Z,23.33
2022-08-12T21:55:18.682Z,23.25
2022-08-12T21:57:54.437Z,23.14
2022-08-12T22:00:35.017Z,23.02
2022-08-12T22:04:01.814Z,22.95
2022-08-12T22:06:26.511Z,22.80
2022-08-12T22:09:02.077Z,22.69
2022-08-12T22:11:42.483Z,22.63
2022-08-12T22:14:17.945Z,22.55
2022-08-12T22:16:53.162Z,22.48
2022-08-12T22:19:21.487Z,22.41
2022-08-12T22:21:53.745Z,22.37
2022-08-12T22:24:26.297Z,22.30
2022-08-12T22:26:58.060Z,22.26
2022-08-12T22:29:45.273Z,22.17
2022-08-12T22:32:15.748Z,22.09
2022-08-12T22:34:44.552Z,22.01
2022-08-12T22:37:19.797Z,21.95
2022-08-12T22:39:49.370Z,21.90
2022-08-12T22:42:35.078Z,21.85
2022-08-12T22:45:23.608Z,21.80
2022-08-12T22:47:55.108Z,21.76
2022-08-12T22:50:27.413Z,21.70
2022-08-12T22:53:14.691Z,21.67
2022-08-12T22:56:05.629Z,21.63
2022-08-12T22:58:33.497Z,21.61
2022-08-12T23:01:03.651Z,21.52
2022-08-12T23:03:49.192Z,21.44
2022-08-12T23:06:20.125Z,21.38
2022-08-12T23:08:48.814Z,21.32
2022-08-12T23:11:17.938Z,21.27
2022-08-12T23:13:55.077Z,21.19
2022-08-12T23:16:31.139Z,21.10
2022-08-12T23:19:10.250Z,21.00
2022-08-12T23:22:06.421Z,20.95
2022-08-12T23:24:38.466Z,20.91
2022-08-12T23:27:23.826Z,20.89
2022-08-12T23:30:18.584Z,20.83
2022-08-12T23:32:54.179Z,20.79
2022-08-12T23:35:22.888Z,20.70
2022-08-12T23:37:53.829Z,20.66
2022-08-12T23:40:24.269Z,20.64
2022-08-12T23:42:54.930Z,20.60
2022-08-12T23:45:31.602Z,20.55
2022-08-12T23:48:03.510Z,20.50
2022-08-12T23:50:34.086Z,20.44
2022-08-12T23:53:05.815Z,20.42
2022-08-12T23:55:38.237Z,20.40
2022-08-12T23:58:21.614Z,20.36
